createdAt,value
2022-09-15T00:02:19.331Z,7.03
2022-09-15T00:04:48.392Z,7.37
2022-09-15T00:07:16.855Z,6.97
2022-09-15T00:09:45.782Z,6.90
2022-09-15T00:12:17.011Z,7.40
2022-09-15T00:14:47.245Z,6.47
2022-09-15T00:17:16.237Z,6.17
2022-09-15T00:19:44.884Z,6.57
2022-09-15T00:22:13.831Z,6.87
2022-09-15T00:24:43.781Z,6.03
2022-09-15T00:27:12.530Z,7.07
2022-09-15T00:29:41.925Z,5.80
2022-09-15T00:32:13.052Z,6.67
2022-09-15T00:34:41.882Z,7.23
2022-09-15T00:37:10.650Z,7.03
2022-09-15T00:39:39.541Z,6.07
2022-09-15T00:42:08.590Z,6.97
2022-09-15T00:44:57.742Z,7.50
2022-09-15T00:47:31.660Z,10.43
2022-09-15T00:50:04.647Z,8.83
2022-09-15T00:52:40.557Z,9.23
2022-09-15T00:55:13.886Z,8.60
2022-09-15T00:57:48.990Z,7.97
2022-09-15T01:00:20.990Z,8.40
2022-09-15T01:02:52.292Z,9.40
2022-09-15T01:05:37.532Z,7.77
2022-09-15T01:08:09.943Z,8.40
2022-09-15T01:10:41.273Z,7.37
2022-09-15T01:13:13.552Z,8.33
2022-09-15T01:15:50.635Z,6.83
2022-09-15T01:18:36.562Z,7.13
2022-09-15T01:21:23.747Z,7.60
2022-09-15T01:24:30.976Z,6.30
2022-09-15T01:27:24.446Z,6.73
2022-09-15T01:30:05.727Z,7.23
2022-09-15T01:33:08.579Z,7.83
2022-09-15T01:35:53.416Z,7.90
2022-09-15T01:38:41.445Z,7.13
2022-09-15T01:41:17.212Z,8.90
2022-09-15T01:43:51.863Z,7.00
2022-09-15T01:46:25.711Z,7.53
2022-09-15T01:48:56.826Z,9.77
2022-09-15T01:51:27.285Z,11.50
2022-09-15T01:53:59.507Z,10.10
2022-09-15T01:56:27.980Z,10.73
2022-09-15T01:59:01.503Z,8.90
2022-09-15T02:01:41.060Z,12.90
2022-09-15T02:04:15.902Z,8.77
2022-09-15T02:06:53.528Z,12.73
2022-09-15T02:09:25.247Z,9.00
2022-09-15T02:12:04.257Z,12.17
2022-09-15T02:14:48.669Z,12.00
2022-09-15T02:17:23.105Z,11.07
2022-09-15T02:19:55.848Z,9.27
2022-09-15T02:22:28.108Z,10.23
2022-09-15T02:25:03.420Z,11.07
2022-09-15T02:27:37.805Z,11.13
2022-09-15T02:30:11.856Z,10.17
2022-09-15T02:32:49.006Z,8.93
2022-09-15T02:35:19.617Z,10.53
2022-09-15T02:37:51.019Z,11.47
2022-09-15T02:40:19.846Z,7.57
2022-09-15T02:42:56.064Z,9.53
2022-09-15T02:45:25.110Z,7.43
2022-09-15T02:47:55.287Z,7.17
2022-09-15T02:50:27.520Z,8.40
2022-09-15T02:52:56.517Z,6.43
2022-09-15T02:55:32.098Z,7.23
2022-09-15T02:58:01.300Z,6.40
2022-09-15T03:00:31.449Z,5.90
2022-09-15T03:03:01.351Z,6.53
2022-09-15T03:05:31.670Z,8.80
2022-09-15T03:08:02.482Z,6.27
2022-09-15T03:10:30.604Z,5.30
2022-09-15T03:12:59.279Z,8.07
2022-09-15T03:15:28.552Z,8.73
2022-09-15T03:17:58.095Z,5.10
2022-09-15T03:20:30.665Z,6.63
2022-09-15T03:23:03.434Z,6.47
2022-09-15T03:25:33.775Z,8.77
2022-09-15T03:28:02.112Z,5.93
2022-09-15T03:30:30.754Z,7.67
2022-09-15T03:32:58.886Z,7.53
2022-09-15T03:35:28.793Z,6.43
2022-09-15T03:37:56.973Z,7.77
2022-09-15T03:40:25.472Z,5.90
2022-09-15T03:42:53.567Z,5.97
2022-09-15T03:45:22.427Z,7.07
2022-09-15T03:47:50.892Z,7.03
2022-09-15T03:50:20.212Z,7.10
2022-09-15T03:52:50.091Z,7.03
2022-09-15T03:55:18.755Z,6.87
2022-09-15T03:57:46.816Z,6.33
2022-09-15T04:00:16.380Z,6.47
2022-09-15T04:02:44.603Z,5.60
2022-09-15T04:05:14.371Z,8.50
2022-09-15T04:07:43.291Z,6.77
2022-09-15T04:10:13.612Z,11.20
2022-09-15T04:12:44.731Z,7.77
2022-09-15T04:15:13.106Z,9.43
2022-09-15T04:17:41.535Z,10.57
2022-09-15T04:20:11.262Z,6.03
2022-09-15T04:22:39.478Z,11.57
2022-09-15T04:25:09.457Z,6.53
2022-09-15T04:27:39.532Z,6.33
2022-09-15T04:30:10.711Z,8.63
2022-09-15T04:32:39.334Z,8.93
2022-09-15T04:35:08.508Z,7.47
2022-09-15T04:37:36.936Z,7.37
2022-09-15T04:40:05.472Z,7.40
2022-09-15T04:42:34.102Z,8.07
2022-09-15T04:45:04.261Z,9.90
2022-09-15T04:47:32.375Z,9.17
2022-09-15T04:50:00.796Z,6.83
2022-09-15T04:52:30.352Z,10.20
2022-09-15T04:54:58.687Z,7.27
2022-09-15T04:57:26.795Z,7.33
2022-09-15T04:59:55.194Z,7.87
2022-09-15T05:02:25.023Z,6.77
2022-09-15T05:04:53.655Z,6.80
2022-09-15T05:07:22.158Z,8.10
2022-09-15T05:09:50.428Z,9.20
2022-09-15T05:12:18.536Z,7.77
2022-09-15T05:14:48.569Z,9.40
2022-09-15T05:17:16.627Z,9.03
2022-09-15T05:19:47.557Z,9.43
2022-09-15T05:22:15.940Z,6.50
2022-09-15T05:24:44.271Z,9.90
2022-09-15T05:27:14.260Z,6.97
2022-09-15T05:29:43.247Z,10.23
2022-09-15T05:32:11.634Z,8.17
2022-09-15T05:34:40.052Z,5.70
2022-09-15T05:37:10.605Z,8.73
2022-09-15T05:39:41.297Z,8.17
2022-09-15T05:42:10.512Z,6.70
2022-09-15T05:44:39.053Z,8.87
2022-09-15T05:47:07.402Z,7.73
2022-09-15T05:49:35.748Z,8.87
2022-09-15T05:52:05.347Z,6.37
2022-09-15T05:54:35.426Z,6.63
2022-09-15T05:57:03.799Z,7.13
2022-09-15T05:59:32.347Z,7.03
2022-09-15T06:02:00.690Z,6.47
2022-09-15T06:04:29.179Z,8.93
2022-09-15T06:06:58.665Z,8.17
2022-09-15T06:09:29.957Z,10.13
2022-09-15T06:11:59.974Z,6.87
2022-09-15T06:14:29.993Z,9.93
2022-09-15T06:17:00.483Z,9.20
2022-09-15T06:19:31.488Z,9.67
2022-09-15T06:22:00.234Z,8.43
2022-09-15T06:24:30.888Z,9.80
2022-09-15T06:27:04.588Z,10.10
2022-09-15T06:29:33.372Z,11.47
2022-09-15T06:32:03.079Z,11.53
2022-09-15T06:34:32.840Z,9.37
2022-09-15T06:37:01.519Z,9.83
2022-09-15T06:39:30.233Z,10.50
2022-09-15T06:42:02.670Z,9.30
2022-09-15T06:44:35.133Z,9.23
2022-09-15T06:47:04.036Z,11.13
2022-09-15T06:49:33.504Z,10.23
2022-09-15T06:52:02.891Z,13.80
2022-09-15T06:54:31.592Z,9.03
2022-09-15T06:57:01.253Z,11.27
2022-09-15T06:59:30.229Z,11.27
2022-09-15T07:02:04.716Z,14.63
2022-09-15T07:04:33.597Z,10.93
2022-09-15T07:07:02.100Z,8.73
2022-09-15T07:09:30.752Z,10.70
2022-09-15T07:11:59.206Z,12.40
2022-09-15T07:14:28.824Z,12.40
2022-09-15T07:16:57.263Z,10.30
2022-09-15T07:19:27.247Z,12.20
2022-09-15T07:21:55.544Z,10.93
2022-09-15T07:24:26.158Z,9.47
2022-09-15T07:26:54.703Z,10.77
2022-09-15T07:29:26.587Z,8.57
2022-09-15T07:31:55.258Z,8.30
2022-09-15T07:34:23.591Z,8.57
2022-09-15T07:36:53.683Z,7.27
2022-09-15T07:39:22.825Z,7.27
2022-09-15T07:41:53.977Z,6.00
2022-09-15T07:44:23.158Z,6.00
2022-09-15T07:46:51.586Z,5.80
2022-09-15T07:49:19.981Z,8.27
2022-09-15T07:51:49.390Z,5.43
2022-09-15T07:54:22.867Z,8.10
2022-09-15T07:56:51.671Z,8.23
2022-09-15T07:59:20.142Z,4.90
2022-09-15T08:01:48.675Z,5.77
2022-09-15T08:04:17.132Z,8.00
2022-09-15T08:06:45.395Z,5.53
2022-09-15T08:09:17.582Z,10.40
2022-09-15T08:11:48.651Z,6.80
2022-09-15T08:14:16.860Z,6.60
2022-09-15T08:16:45.371Z,3.93
2022-09-15T08:19:13.999Z,3.33
2022-09-15T08:21:42.794Z,4.03
2022-09-15T08:24:10.962Z,4.50
2022-09-15T08:26:39.166Z,4.60
2022-09-15T08:29:12.896Z,5.23
2022-09-15T08:31:41.917Z,4.13
2022-09-15T08:34:13.733Z,4.60
2022-09-15T08:36:42.113Z,5.63
2022-09-15T08:39:10.756Z,5.20
2022-09-15T08:41:41.650Z,5.30
2022-09-15T08:44:24.160Z,3.40
2022-09-15T08:46:58.226Z,3.10
2022-09-15T08:49:50.696Z,6.93
2022-09-15T08:52:27.985Z,5.53
2022-09-15T08:55:04.708Z,5.20
2022-09-15T08:57:33.049Z,5.93
2022-09-15T09:00:04.120Z,5.43
2022-09-15T09:03:17.211Z,5.13
2022-09-15T09:05:54.925Z,7.03
2022-09-15T09:08:57.274Z,3.50
2022-09-15T09:11:38.307Z,5.67
2022-09-15T09:14:18.041Z,5.57
2022-09-15T09:17:01.331Z,4.97
2022-09-15T09:19:50.785Z,5.23
2022-09-15T09:22:24.781Z,4.53
2022-09-15T09:24:56.766Z,4.00
2022-09-15T09:27:29.576Z,4.40
2022-09-15T09:30:04.609Z,7.13
2022-09-15T09:32:46.536Z,5.70
2022-09-15T09:35:21.910Z,7.77
2022-09-15T09:37:52.817Z,6.97
2022-09-15T09:40:22.365Z,4.73
2022-09-15T09:42:51.295Z,6.00
2022-09-15T09:45:22.937Z,5.07
2022-09-15T09:47:57.296Z,6.83
2022-09-15T09:50:38.933Z,4.33
2022-09-15T09:53:21.592Z,6.30
2022-09-15T09:55:50.242Z,4.53
2022-09-15T09:58:24.133Z,5.97
2022-09-15T10:00:54.427Z,5.60
2022-09-15T10:03:30.632Z,5.53
2022-09-15T10:06:07.670Z,6.20
2022-09-15T10:08:39.380Z,7.77
2022-09-15T10:11:10.448Z,4.00
2022-09-15T10:13:55.077Z,6.87
2022-09-15T10:16:24.656Z,5.70
2022-09-15T10:19:00.729Z,4.83
2022-09-15T10:21:29.241Z,6.43
2022-09-15T10:23:57.593Z,5.37
2022-09-15T10:26:46.140Z,6.50
2022-09-15T10:29:20.227Z,6.40
2022-09-15T10:31:50.059Z,6.93
2022-09-15T10:34:34.654Z,8.30
2022-09-15T10:37:09.945Z,8.20
2022-09-15T10:39:53.342Z,7.37
2022-09-15T10:42:33.321Z,9.00
2022-09-15T10:45:26.293Z,6.97
2022-09-15T10:48:13.116Z,6.03
2022-09-15T10:50:52.636Z,7.33
2022-09-15T10:53:30.156Z,7.73
2022-09-15T10:56:06.172Z,6.87
2022-09-15T10:58:49.456Z,5.77
2022-09-15T11:01:34.951Z,7.33
2022-09-15T11:04:41.496Z,5.33
2022-09-15T11:07:30.590Z,5.53
2022-09-15T11:10:12.740Z,4.23
2022-09-15T11:12:57.734Z,4.33
2022-09-15T11:15:54.995Z,4.40
2022-09-15T11:18:45.656Z,4.47
2022-09-15T11:21:34.082Z,4.87
2022-09-15T11:37:51.107Z,4.80
2022-09-15T11:40:24.814Z,4.70
2022-09-15T11:43:02.310Z,5.87
2022-09-15T11:45:46.017Z,2.30
2022-09-15T11:48:18.803Z,4.67
2022-09-15T11:50:52.216Z,4.73
2022-09-15T11:53:34.630Z,3.00
2022-09-15T11:56:13.654Z,2.63
2022-09-15T11:58:59.495Z,4.33
2022-09-15T12:01:34.217Z,6.17
2022-09-15T12:04:07.110Z,4.70
2022-09-15T12:06:45.359Z,2.97
2022-09-15T12:09:18.238Z,2.87
2022-09-15T12:11:49.419Z,3.27
2022-09-15T12:14:23.060Z,4.13
2022-09-15T12:16:54.327Z,3.60
2022-09-15T12:19:43.383Z,2.63
2022-09-15T12:22:21.370Z,4.77
2022-09-15T12:25:01.305Z,4.03
2022-09-15T12:27:31.292Z,3.47
2022-09-15T12:30:01.592Z,3.57
2022-09-15T12:32:30.601Z,3.43
2022-09-15T12:35:06.451Z,2.70
2022-09-15T12:37:43.451Z,2.30
2022-09-15T12:40:34.608Z,2.90
2022-09-15T12:43:06.468Z,4.03
2022-09-15T12:45:36.832Z,2.90
2022-09-15T12:48:08.724Z,3.40
2022-09-15T12:50:40.395Z,1.87
2022-09-15T12:53:18.754Z,3.97
2022-09-15T12:55:58.119Z,2.90
2022-09-15T12:58:34.878Z,2.60
2022-09-15T13:01:32.618Z,3.20
2022-09-15T13:04:24.344Z,2.17
2022-09-15T13:07:25.863Z,1.70
2022-09-15T13:10:00.332Z,2.53
2022-09-15T13:12:37.873Z,4.80
2022-09-15T13:15:14.726Z,2.53
2022-09-15T13:17:50.020Z,2.90
2022-09-15T13:20:38.535Z,4.60
2022-09-15T13:23:10.986Z,3.00
2022-09-15T13:25:45.080Z,2.90
2022-09-15T13:28:16.817Z,2.43
2022-09-15T13:31:01.184Z,2.97
2022-09-15T13:39:56.313Z,2.40
2022-09-15T13:42:41.259Z,3.47
2022-09-15T13:45:46.199Z,2.20
2022-09-15T13:48:29.425Z,4.30
2022-09-15T13:51:00.947Z,3.37
2022-09-15T13:53:43.112Z,2.87
2022-09-15T13:56:22.028Z,4.10
2022-09-15T13:58:57.590Z,4.57
2022-09-15T14:01:35.871Z,4.10
2022-09-15T14:04:10.988Z,6.03
2022-09-15T14:06:42.825Z,3.90
2022-09-15T14:09:17.151Z,4.17
2022-09-15T14:11:50.258Z,5.43
2022-09-15T14:14:36.211Z,3.03
2022-09-15T14:17:06.919Z,4.27
2022-09-15T14:19:38.247Z,3.07
2022-09-15T14:22:26.371Z,2.63
2022-09-15T14:24:56.167Z,5.77
2022-09-15T14:27:26.949Z,3.43
2022-09-15T14:29:58.021Z,4.60
2022-09-15T14:32:30.150Z,4.17
2022-09-15T14:35:01.310Z,5.03
2022-09-15T14:37:32.576Z,3.67
2022-09-15T14:40:03.441Z,3.57
2022-09-15T14:42:36.718Z,5.60
2022-09-15T14:48:17.826Z,4.43
2022-09-15T14:50:48.616Z,5.47
2022-09-15T14:53:21.169Z,7.87
2022-09-15T14:55:54.171Z,6.53
2022-09-15T14:58:26.375Z,3.83
2022-09-15T15:00:58.708Z,4.23
2022-09-15T15:03:36.298Z,3.97
2022-09-15T15:06:34.993Z,4.43
2022-09-15T15:09:04.058Z,3.53
2022-09-15T15:11:34.763Z,6.17
2022-09-15T15:14:07.485Z,4.63
2022-09-15T15:16:36.136Z,5.27
2022-09-15T15:19:06.473Z,7.17
2022-09-15T15:21:41.255Z,3.80
2022-09-15T15:24:18.144Z,3.67
2022-09-15T15:26:47.777Z,2.97
2022-09-15T15:29:44.439Z,4.97
2022-09-15T15:32:17.655Z,5.77
2022-09-15T15:34:55.976Z,5.40
2022-09-15T15:37:30.258Z,4.57
2022-09-15T15:40:00.911Z,4.97
2022-09-15T15:42:31.897Z,5.57
2022-09-15T15:45:05.331Z,4.33
2022-09-15T15:47:41.482Z,7.17
2022-09-15T15:50:15.649Z,5.33
2022-09-15T15:52:49.278Z,6.00
2022-09-15T15:55:21.842Z,9.17
2022-09-15T15:57:52.707Z,5.17
2022-09-15T16:00:25.162Z,6.37
2022-09-15T16:02:59.435Z,5.27
2022-09-15T16:05:30.870Z,5.17
2022-09-15T16:08:03.765Z,7.60
2022-09-15T16:10:40.844Z,4.90
2022-09-15T16:13:09.963Z,4.57
2022-09-15T16:15:38.305Z,5.37
2022-09-15T16:18:07.041Z,5.20
2022-09-15T16:20:37.244Z,4.47
2022-09-15T16:23:05.951Z,6.07
2022-09-15T16:25:38.278Z,6.43
2022-09-15T16:28:06.998Z,7.17
2022-09-15T16:30:36.121Z,7.67
2022-09-15T16:33:05.577Z,5.00
2022-09-15T16:35:40.985Z,5.50
2022-09-15T16:38:11.138Z,6.03
2022-09-15T16:40:39.562Z,4.17
2022-09-15T16:43:14.231Z,7.20
2022-09-15T16:45:45.196Z,5.03
2022-09-15T16:48:14.010Z,5.50
2022-09-15T16:51:09.067Z,4.60
2022-09-15T16:53:35.738Z,4.80
2022-09-15T16:56:05.876Z,7.33
2022-09-15T16:58:34.169Z,3.03
2022-09-15T17:01:04.143Z,6.60
2022-09-15T17:03:33.717Z,3.83
2022-09-15T17:06:06.456Z,6.17
2022-09-15T17:08:35.021Z,3.83
2022-09-15T17:11:08.138Z,4.90
2022-09-15T17:13:36.487Z,3.73
2022-09-15T17:16:04.920Z,4.67
2022-09-15T17:18:33.511Z,4.13
2022-09-15T17:21:03.643Z,5.13
2022-09-15T17:23:35.554Z,6.10
2022-09-15T17:26:07.814Z,6.87
2022-09-15T17:28:39.300Z,4.17
2022-09-15T17:31:13.556Z,5.30
2022-09-15T17:33:42.527Z,5.17
2022-09-15T17:36:12.767Z,4.87
2022-09-15T17:38:42.048Z,6.13
2022-09-15T17:41:15.203Z,5.00
2022-09-15T17:43:43.580Z,5.40
2022-09-15T17:46:13.849Z,5.17
2022-09-15T17:48:56.735Z,6.47
2022-09-15T17:51:26.937Z,5.90
2022-09-15T17:53:55.685Z,6.90
2022-09-15T17:56:24.177Z,6.53
2022-09-15T17:58:52.508Z,5.10
2022-09-15T18:01:21.141Z,5.57
2022-09-15T18:03:50.268Z,6.57
2022-09-15T18:06:18.482Z,4.93
2022-09-15T18:08:48.220Z,4.60
2022-09-15T18:11:16.863Z,7.33
2022-09-15T18:13:45.117Z,4.23
2022-09-15T18:16:15.500Z,3.73
2022-09-15T18:18:43.934Z,6.50
2022-09-15T18:21:24.862Z,4.57
2022-09-15T18:23:55.076Z,7.70
2022-09-15T18:26:26.275Z,4.70
2022-09-15T18:28:56.584Z,4.33
2022-09-15T18:31:26.946Z,2.80
2022-09-15T18:33:55.597Z,2.63
2022-09-15T18:36:24.565Z,3.77
2022-09-15T18:38:54.622Z,6.37
2022-09-15T18:41:23.159Z,4.30
2022-09-15T18:43:51.780Z,4.17
2022-09-15T18:46:20.988Z,3.70
2022-09-15T18:48:49.876Z,5.70
2022-09-15T18:51:29.074Z,4.67
2022-09-15T18:54:04.973Z,2.97
2022-09-15T18:56:33.822Z,4.80
2022-09-15T18:59:03.040Z,3.87
2022-09-15T19:01:32.974Z,3.13
2022-09-15T19:04:01.795Z,5.07
2022-09-15T19:06:30.944Z,2.53
2022-09-15T19:08:59.238Z,5.30
2022-09-15T19:11:30.767Z,9.53
2022-09-15T19:13:59.051Z,3.60
2022-09-15T19:16:46.560Z,5.30
2022-09-15T19:19:18.367Z,2.50
2022-09-15T19:21:47.140Z,5.07
2022-09-15T19:24:16.194Z,6.27
2022-09-15T19:26:49.211Z,7.57
2022-09-15T19:29:18.079Z,2.60
2022-09-15T19:31:46.755Z,4.33
2022-09-15T19:34:15.148Z,2.57
2022-09-15T19:36:47.111Z,3.57
2022-09-15T19:41:57.845Z,3.47
2022-09-15T19:44:26.647Z,6.33
2022-09-15T19:46:55.547Z,2.53
2022-09-15T19:49:24.045Z,2.33
2022-09-15T19:51:55.862Z,4.80
2022-09-15T19:54:29.860Z,4.03
2022-09-15T19:57:02.293Z,5.50
2022-09-15T19:59:31.992Z,4.80
2022-09-15T20:02:00.890Z,6.83
2022-09-15T20:04:29.483Z,4.80
2022-09-15T20:06:58.408Z,6.17
2022-09-15T20:09:26.971Z,7.07
2022-09-15T20:11:55.246Z,3.27
2022-09-15T20:14:25.739Z,3.60
2022-09-15T20:16:57.386Z,4.97
2022-09-15T20:19:31.948Z,2.80
2022-09-15T20:22:00.612Z,3.17
2022-09-15T20:24:31.255Z,4.43
2022-09-15T20:26:59.778Z,4.03
2022-09-15T20:29:29.537Z,4.77
2022-09-15T20:31:58.356Z,6.03
2022-09-15T20:34:26.731Z,2.70
2022-09-15T20:36:58.145Z,6.77
2022-09-15T20:39:27.599Z,4.67
2022-09-15T20:41:58.043Z,6.80
2022-09-15T20:44:26.222Z,4.43
2022-09-15T20:46:56.348Z,3.13
2022-09-15T20:49:24.751Z,3.20
2022-09-15T20:51:53.275Z,4.60
2022-09-15T20:54:21.814Z,4.90
2022-09-15T20:56:50.923Z,3.37
2022-09-15T20:59:19.633Z,3.70
2022-09-15T21:01:53.945Z,4.33
2022-09-15T21:04:23.679Z,5.53
2022-09-15T21:06:56.118Z,3.53
2022-09-15T21:09:24.395Z,4.10
2022-09-15T21:11:53.808Z,5.10
2022-09-15T21:14:22.677Z,6.07
2022-09-15T21:16:51.139Z,5.50
2022-09-15T21:19:19.275Z,3.77
2022-09-15T21:21:50.151Z,5.10
2022-09-15T21:24:18.782Z,5.00
2022-09-15T21:27:04.130Z,5.77
2022-09-15T21:29:35.016Z,2.97
2022-09-15T21:32:03.903Z,4.93
2022-09-15T21:34:34.202Z,4.70
2022-09-15T21:37:04.258Z,5.70
2022-09-15T21:39:33.550Z,4.03
2022-09-15T21:42:02.718Z,6.90
2022-09-15T21:44:32.980Z,6.40
2022-09-15T21:47:01.449Z,7.10
2022-09-15T21:49:29.821Z,7.47
2022-09-15T21:51:58.874Z,6.10
2022-09-15T21:54:28.740Z,3.07
2022-09-15T21:56:57.682Z,7.67
2022-09-15T21:59:26.088Z,6.03
2022-09-15T22:01:54.960Z,6.30
2022-09-15T22:04:23.327Z,8.67
2022-09-15T22:06:54.466Z,7.90
2022-09-15T22:09:25.127Z,5.50
2022-09-15T22:11:55.974Z,5.20
2022-09-15T22:14:24.606Z,11.43
2022-09-15T22:16:53.473Z,6.07
2022-09-15T22:19:24.874Z,3.73
2022-09-15T22:21:54.158Z,7.63
2022-09-15T22:24:23.012Z,10.00
2022-09-15T22:26:51.172Z,7.20
2022-09-15T22:29:21.703Z,6.97
2022-09-15T22:31:50.325Z,6.00
2022-09-15T22:34:20.228Z,3.97
2022-09-15T22:36:48.959Z,5.57
2022-09-15T22:39:17.668Z,8.17
2022-09-15T22:41:46.423Z,5.57
2022-09-15T22:44:22.394Z,8.57
2022-09-15T22:46:52.371Z,5.63
2022-09-15T22:49:21.519Z,5.10
2022-09-15T22:51:50.139Z,4.03
2022-09-15T22:54:18.424Z,5.23
2022-09-15T22:56:48.096Z,6.57
2022-09-15T22:59:17.118Z,4.77
2022-09-15T23:01:47.405Z,3.53
2022-09-15T23:04:16.565Z,3.53
2022-09-15T23:06:45.322Z,5.63
2022-09-15T23:09:14.495Z,7.23
2022-09-15T23:11:44.638Z,8.70
2022-09-15T23:14:15.432Z,4.40
2022-09-15T23:16:44.527Z,5.53
2022-09-15T23:19:15.978Z,8.00
2022-09-15T23:21:44.338Z,5.70
2022-09-15T23:24:14.323Z,5.50
2022-09-15T23:26:46.936Z,5.40
2022-09-15T23:29:15.326Z,5.70
2022-09-15T23:31:43.755Z,7.43
2022-09-15T23:34:12.163Z,5.77
2022-09-15T23:36:42.200Z,6.77
2022-09-15T23:39:11.136Z,4.70
2022-09-15T23:41:41.446Z,4.67
2022-09-15T23:44:10.095Z,8.77
2022-09-15T23:46:38.635Z,8.30
2022-09-15T23:49:08.101Z,8.17
2022-09-15T23:51:36.581Z,7.37
2022-09-15T23:54:07.339Z,6.07
2022-09-15T23:56:35.643Z,7.47
2022-09-15T23:59:05.108Z,5.30
